createdAt,value
2017-07-10T00:00:50.682Z,79
2017-07-10T00:01:53.034Z,79
2017-07-10T00:02:55.050Z,79
2017-07-10T00:03:57.416Z,79
2017-07-10T00:04:59.437Z,79
2017-07-10T00:06:01.455Z,79
2017-07-10T00:07:03.471Z,79
2017-07-10T00:08:05.498Z,79
2017-07-10T00:09:07.502Z,79
2017-07-10T00:10:09.509Z,79
2017-07-10T00:11:11.521Z,79
2017-07-10T00:12:13.542Z,78
2017-07-10T00:13:15.559Z,78
2017-07-10T00:14:17.579Z,78
2017-07-10T00:15:19.592Z,78
2017-07-10T00:16:21.616Z,78
2017-07-10T00:17:23.625Z,78
2017-07-10T00:18:25.642Z,78
2017-07-10T00:19:27.662Z,78
2017-07-10T00:20:29.672Z,78
2017-07-10T00:21:31.690Z,78
2017-07-10T00:22:33.731Z,78
2017-07-10T00:23:35.739Z,78
2017-07-10T00:24:37.752Z,79
2017-07-10T00:25:39.766Z,79
2017-07-10T00:26:41.778Z,79
2017-07-10T00:27:43.800Z,79
2017-07-10T00:28:45.808Z,79
2017-07-10T00:29:47.832Z,79
2017-07-10T00:30:49.850Z,79
2017-07-10T00:31:51.856Z,79
2017-07-10T00:32:53.872Z,79
2017-07-10T00:33:55.891Z,79
2017-07-10T00:34:57.900Z,79
2017-07-10T00:35:59.921Z,79
2017-07-10T00:37:02.293Z,79
2017-07-10T00:38:04.307Z,79
2017-07-10T00:39:06.317Z,79
2017-07-10T00:40:08.334Z,80
2017-07-10T00:41:10.354Z,80
2017-07-10T00:42:12.366Z,80
2017-07-10T00:43:14.384Z,80
2017-07-10T00:44:16.405Z,81
2017-07-10T00:45:18.422Z,81
2017-07-10T00:46:20.441Z,81
2017-07-10T00:47:22.452Z,81
2017-07-10T00:48:24.477Z,81
2017-07-10T00:49:26.499Z,81
2017-07-10T00:50:28.503Z,81
2017-07-10T00:51:30.525Z,81
2017-07-10T00:52:32.534Z,81
2017-07-10T00:53:34.560Z,81
2017-07-10T00:54:36.571Z,81
2017-07-10T00:55:38.587Z,81
2017-07-10T00:56:40.595Z,81
2017-07-10T00:57:42.621Z,81
2017-07-10T00:58:44.632Z,81
2017-07-10T00:59:46.654Z,81
2017-07-10T01:00:48.663Z,81
2017-07-10T01:01:50.676Z,81
2017-07-10T01:02:52.683Z,81
2017-07-10T01:03:55.055Z,81
2017-07-10T01:04:57.068Z,81
2017-07-10T01:05:59.093Z,81
2017-07-10T01:07:01.103Z,81
2017-07-10T01:08:03.120Z,81
2017-07-10T01:09:05.135Z,81
2017-07-10T01:10:07.155Z,81
2017-07-10T01:11:09.161Z,81
2017-07-10T01:12:11.178Z,81
2017-07-10T01:13:13.194Z,82
2017-07-10T01:14:15.212Z,81
2017-07-10T01:15:17.566Z,82
2017-07-10T01:16:19.588Z,82
2017-07-10T01:17:21.600Z,82
2017-07-10T01:18:23.623Z,82
2017-07-10T01:19:25.633Z,82
2017-07-10T01:20:27.657Z,83
2017-07-10T01:21:29.662Z,82
2017-07-10T01:22:31.671Z,83
2017-07-10T01:23:34.030Z,83
2017-07-10T01:24:36.043Z,82
2017-07-10T01:25:38.056Z,82
2017-07-10T01:26:40.068Z,82
2017-07-10T01:27:42.077Z,83
2017-07-10T01:28:44.096Z,83
2017-07-10T01:29:46.102Z,83
2017-07-10T01:30:48.127Z,83
2017-07-10T01:31:50.130Z,83
2017-07-10T01:32:52.145Z,83
2017-07-10T01:33:54.160Z,82
2017-07-10T01:34:56.178Z,82
2017-07-10T01:35:58.201Z,82
2017-07-10T01:37:00.562Z,82
2017-07-10T01:38:02.581Z,82
2017-07-10T01:39:04.596Z,82
2017-07-10T01:40:06.610Z,82
2017-07-10T01:41:08.960Z,82
2017-07-10T01:42:10.974Z,82
2017-07-10T01:43:12.990Z,82
2017-07-10T01:44:15.004Z,83
2017-07-10T01:45:17.008Z,83
2017-07-10T01:46:19.024Z,83
2017-07-10T01:47:21.041Z,83
2017-07-10T01:48:23.054Z,83
2017-07-10T01:49:25.079Z,83
2017-07-10T01:50:27.096Z,83
2017-07-10T01:51:29.111Z,83
2017-07-10T01:52:31.127Z,83
2017-07-10T01:53:33.140Z,83
2017-07-10T01:54:35.163Z,83
2017-07-10T01:55:37.182Z,83
2017-07-10T01:56:39.192Z,83
2017-07-10T01:57:41.210Z,83
2017-07-10T01:58:43.221Z,83
2017-07-10T01:59:45.234Z,83
2017-07-10T02:00:47.245Z,83
2017-07-10T02:01:49.267Z,83
2017-07-10T02:02:51.285Z,83
2017-07-10T02:03:53.294Z,83
2017-07-10T02:04:55.303Z,84
2017-07-10T02:05:57.314Z,84
2017-07-10T02:06:59.330Z,84
2017-07-10T02:08:01.346Z,83
2017-07-10T02:09:03.351Z,84
2017-07-10T02:10:05.371Z,84
2017-07-10T02:11:07.394Z,84
2017-07-10T02:12:09.410Z,84
2017-07-10T02:13:11.419Z,84
2017-07-10T02:14:13.439Z,84
2017-07-10T02:15:15.791Z,84
2017-07-10T02:16:17.804Z,84
2017-07-10T02:17:19.815Z,84
2017-07-10T02:18:21.845Z,84
2017-07-10T02:19:23.853Z,84
2017-07-10T02:20:25.859Z,84
2017-07-10T02:21:27.871Z,84
2017-07-10T02:22:29.881Z,85
2017-07-10T02:23:32.233Z,85
2017-07-10T02:24:34.254Z,84
2017-07-10T02:25:36.270Z,84
2017-07-10T02:26:38.641Z,84
2017-07-10T02:27:40.646Z,84
2017-07-10T02:28:43.013Z,84
2017-07-10T02:29:45.041Z,85
2017-07-10T02:30:47.051Z,85
2017-07-10T02:31:49.065Z,85
2017-07-10T02:32:51.085Z,85
2017-07-10T02:33:53.098Z,85
2017-07-10T02:34:55.114Z,85
2017-07-10T02:35:57.119Z,85
2017-07-10T02:36:59.145Z,85
2017-07-10T02:38:01.158Z,85
2017-07-10T02:39:03.170Z,85
2017-07-10T02:40:05.192Z,85
2017-07-10T02:41:07.205Z,84
2017-07-10T02:42:09.218Z,84
2017-07-10T02:43:11.236Z,84
2017-07-10T02:44:13.253Z,84
2017-07-10T02:45:15.279Z,84
2017-07-10T02:46:17.296Z,84
2017-07-10T02:47:19.315Z,84
2017-07-10T02:48:21.334Z,84
2017-07-10T02:49:23.353Z,84
2017-07-10T02:50:25.359Z,84
2017-07-10T02:51:27.383Z,83
2017-07-10T02:52:29.402Z,83
2017-07-10T02:53:31.415Z,83
2017-07-10T02:54:33.437Z,83
2017-07-10T02:55:35.455Z,83
2017-07-10T02:56:37.465Z,83
2017-07-10T02:57:39.478Z,83
2017-07-10T02:58:41.494Z,83
2017-07-10T02:59:43.514Z,83
2017-07-10T03:00:45.520Z,83
2017-07-10T03:01:47.542Z,83
2017-07-10T03:02:49.557Z,83
2017-07-10T03:03:51.574Z,82
2017-07-10T03:04:53.597Z,82
2017-07-10T03:05:55.614Z,82
2017-07-10T03:06:57.633Z,82
2017-07-10T03:07:59.656Z,82
2017-07-10T03:09:01.668Z,82
2017-07-10T03:10:03.696Z,82
2017-07-10T03:11:05.708Z,82
2017-07-10T03:12:07.716Z,82
2017-07-10T03:13:09.733Z,82
2017-07-10T03:14:11.752Z,82
2017-07-10T03:15:13.765Z,82
2017-07-10T03:16:15.782Z,81
2017-07-10T03:17:17.802Z,81
2017-07-10T03:18:19.817Z,81
2017-07-10T03:19:21.828Z,81
2017-07-10T03:20:23.846Z,81
2017-07-10T03:21:25.865Z,81
2017-07-10T03:22:27.888Z,82
2017-07-10T03:23:29.901Z,82
2017-07-10T03:24:32.285Z,82
2017-07-10T03:25:34.297Z,82
2017-07-10T03:26:36.313Z,82
2017-07-10T03:27:38.665Z,82
2017-07-10T03:28:40.683Z,81
2017-07-10T03:29:42.700Z,82
2017-07-10T03:30:44.716Z,82
2017-07-10T03:31:46.745Z,82
2017-07-10T03:32:48.759Z,82
2017-07-10T03:33:50.774Z,82
2017-07-10T03:34:52.798Z,82
2017-07-10T03:35:54.819Z,82
2017-07-10T03:36:56.841Z,81
2017-07-10T03:37:58.853Z,81
2017-07-10T03:39:01.216Z,81
2017-07-10T03:40:03.234Z,81
2017-07-10T03:41:05.241Z,81
2017-07-10T03:42:07.267Z,81
2017-07-10T03:43:09.288Z,81
2017-07-10T03:44:11.303Z,81
2017-07-10T03:45:13.330Z,80
2017-07-10T03:46:15.348Z,80
2017-07-10T03:47:17.365Z,80
2017-07-10T03:48:19.385Z,80
2017-07-10T03:49:21.738Z,80
2017-07-10T03:50:23.763Z,80
2017-07-10T03:51:25.775Z,80
2017-07-10T03:52:27.789Z,79
2017-07-10T03:53:29.810Z,79
2017-07-10T03:54:31.833Z,79
2017-07-10T03:55:33.840Z,79
2017-07-10T03:56:35.860Z,79
2017-07-10T03:57:37.885Z,79
2017-07-10T03:58:39.910Z,79
2017-07-10T03:59:41.917Z,79
2017-07-10T04:00:43.935Z,79
2017-07-10T04:01:46.299Z,78
2017-07-10T04:02:48.657Z,78
2017-07-10T04:03:50.678Z,78
2017-07-10T04:04:52.701Z,78
2017-07-10T04:05:55.058Z,78
2017-07-10T04:06:57.078Z,78
2017-07-10T04:07:59.091Z,78
2017-07-10T04:09:01.097Z,78
2017-07-10T04:10:03.120Z,78
2017-07-10T04:11:05.146Z,78
2017-07-10T04:12:07.156Z,78
2017-07-10T04:13:09.172Z,78
2017-07-10T04:14:11.183Z,78
2017-07-10T04:15:13.206Z,78
2017-07-10T04:16:15.212Z,78
2017-07-10T04:17:17.234Z,78
2017-07-10T04:18:19.261Z,78
2017-07-10T04:19:21.279Z,78
2017-07-10T04:20:23.290Z,78
2017-07-10T04:21:25.312Z,78
2017-07-10T04:22:27.324Z,78
2017-07-10T04:23:29.340Z,78
2017-07-10T04:24:31.364Z,78
2017-07-10T04:25:33.386Z,78
2017-07-10T04:26:35.396Z,78
2017-07-10T04:27:37.417Z,78
2017-07-10T04:28:39.434Z,78
2017-07-10T04:29:41.462Z,78
2017-07-10T04:30:43.484Z,77
2017-07-10T04:31:45.851Z,78
2017-07-10T04:32:47.865Z,78
2017-07-10T04:33:50.220Z,78
2017-07-10T04:34:52.237Z,78
2017-07-10T04:35:54.255Z,78
2017-07-10T04:36:56.277Z,78
2017-07-10T04:37:58.302Z,78
2017-07-10T04:39:00.312Z,78
2017-07-10T04:40:02.334Z,78
2017-07-10T04:41:04.358Z,78
2017-07-10T04:42:06.386Z,78
2017-07-10T04:43:08.410Z,78
2017-07-10T04:44:10.418Z,78
2017-07-10T04:45:12.432Z,78
2017-07-10T04:46:14.453Z,78
2017-07-10T04:47:16.476Z,78
2017-07-10T04:48:18.495Z,78
2017-07-10T04:49:20.515Z,78
2017-07-10T04:50:22.533Z,78
2017-07-10T04:51:24.544Z,78
2017-07-10T04:52:26.564Z,78
2017-07-10T04:53:28.590Z,78
2017-07-10T04:54:30.612Z,78
2017-07-10T04:55:32.635Z,78
2017-07-10T04:56:34.646Z,78
2017-07-10T04:57:36.671Z,77
2017-07-10T04:58:38.696Z,77
2017-07-10T04:59:40.716Z,78
2017-07-10T05:00:42.731Z,78
2017-07-10T05:01:44.754Z,78
2017-07-10T05:02:46.775Z,78
2017-07-10T05:03:48.783Z,78
2017-07-10T05:04:50.808Z,77
2017-07-10T05:05:52.837Z,78
2017-07-10T05:06:54.859Z,78
2017-07-10T05:07:56.882Z,77
2017-07-10T05:08:58.901Z,77
2017-07-10T05:10:00.919Z,77
2017-07-10T05:11:02.933Z,77
2017-07-10T05:12:04.960Z,77
2017-07-10T05:13:06.989Z,77
2017-07-10T05:14:09.010Z,76
2017-07-10T05:15:11.024Z,77
2017-07-10T05:16:13.044Z,77
2017-07-10T05:17:15.072Z,77
2017-07-10T05:18:17.098Z,77
2017-07-10T05:19:19.123Z,77
2017-07-10T05:20:21.157Z,77
2017-07-10T05:21:23.176Z,77
2017-07-10T05:22:25.206Z,77
2017-07-10T05:23:27.221Z,77
2017-07-10T05:24:29.247Z,76
2017-07-10T05:25:31.266Z,76
2017-07-10T05:26:33.290Z,76
2017-07-10T05:27:35.313Z,76
2017-07-10T05:28:37.333Z,77
2017-07-10T05:29:39.363Z,77
2017-07-10T05:30:41.385Z,76
2017-07-10T05:31:43.398Z,76
2017-07-10T05:32:45.440Z,76
2017-07-10T05:33:47.797Z,76
2017-07-10T05:34:49.813Z,75
2017-07-10T05:35:51.835Z,75
2017-07-10T05:36:53.869Z,75
2017-07-10T05:37:55.887Z,75
2017-07-10T05:38:58.241Z,75
2017-07-10T05:40:00.263Z,75
2017-07-10T05:41:02.281Z,75
2017-07-10T05:42:04.301Z,75
2017-07-10T05:43:06.325Z,75
2017-07-10T05:44:08.349Z,75
2017-07-10T05:45:10.390Z,75
2017-07-10T05:46:12.388Z,75
2017-07-10T05:47:14.415Z,75
2017-07-10T05:48:16.617Z,75
2017-07-10T05:49:18.646Z,74
2017-07-10T05:50:20.666Z,74
2017-07-10T05:51:22.693Z,74
2017-07-10T05:52:24.726Z,74
2017-07-10T05:53:26.743Z,74
2017-07-10T05:54:28.773Z,74
2017-07-10T05:55:30.790Z,74
2017-07-10T05:56:32.816Z,74
2017-07-10T05:57:34.882Z,74
2017-07-10T05:58:36.901Z,74
2017-07-10T05:59:38.928Z,73
2017-07-10T06:00:41.202Z,73
2017-07-10T06:01:44.466Z,74
2017-07-10T06:02:46.511Z,74
2017-07-10T06:03:48.558Z,74
2017-07-10T06:04:50.604Z,73
2017-07-10T06:05:53.115Z,73
2017-07-10T06:06:55.215Z,73
2017-07-10T06:07:57.247Z,73
2017-07-10T06:08:59.904Z,73
2017-07-10T06:10:01.916Z,73
2017-07-10T06:11:03.949Z,73
2017-07-10T06:12:05.959Z,73
2017-07-10T06:13:08.373Z,73
2017-07-10T06:14:11.419Z,73
2017-07-10T06:15:13.531Z,72
2017-07-10T06:16:15.582Z,72
2017-07-10T06:17:17.610Z,72
2017-07-10T06:18:19.629Z,72
2017-07-10T06:19:23.042Z,72
2017-07-10T06:20:25.621Z,72
2017-07-10T06:21:27.645Z,72
2017-07-10T06:22:29.670Z,72
2017-07-10T06:23:31.782Z,71
2017-07-10T06:24:33.970Z,71
2017-07-10T06:25:36.001Z,72
2017-07-10T06:26:38.024Z,71
2017-07-10T06:27:40.129Z,71
2017-07-10T06:28:42.488Z,71
2017-07-10T06:29:44.516Z,71
2017-07-10T06:30:46.539Z,71
2017-07-10T06:31:48.559Z,70
2017-07-10T06:32:50.576Z,70
2017-07-10T06:33:52.634Z,70
2017-07-10T06:34:54.653Z,70
2017-07-10T06:35:56.785Z,70
2017-07-10T06:36:58.805Z,70
2017-07-10T06:38:00.824Z,70
2017-07-10T06:39:02.862Z,70
2017-07-10T06:40:04.889Z,70
2017-07-10T06:41:06.912Z,70
2017-07-10T06:42:08.941Z,70
2017-07-10T06:43:10.974Z,70
2017-07-10T06:44:13.001Z,70
2017-07-10T06:45:15.018Z,70
2017-07-10T06:46:17.031Z,70
2017-07-10T06:47:19.058Z,71
2017-07-10T06:48:21.077Z,71
2017-07-10T06:49:23.109Z,71
2017-07-10T06:50:25.127Z,71
2017-07-10T06:51:27.148Z,71
2017-07-10T06:52:29.173Z,70
2017-07-10T06:53:31.192Z,71
2017-07-10T06:54:33.224Z,70
2017-07-10T06:55:35.257Z,70
2017-07-10T06:56:37.286Z,71
2017-07-10T06:57:39.314Z,71
2017-07-10T06:58:41.333Z,71
2017-07-10T06:59:43.372Z,71
2017-07-10T07:00:45.394Z,70
2017-07-10T07:01:47.417Z,70
2017-07-10T07:02:49.451Z,70
2017-07-10T07:03:51.538Z,70
2017-07-10T07:04:53.501Z,70
2017-07-10T07:05:55.521Z,70
2017-07-10T07:06:57.553Z,70
2017-07-10T07:07:59.577Z,69
2017-07-10T07:09:01.591Z,70
2017-07-10T07:10:03.626Z,69
2017-07-10T07:11:05.657Z,69
2017-07-10T07:12:07.676Z,70
2017-07-10T07:13:09.701Z,70
2017-07-10T07:14:11.746Z,69
2017-07-10T07:15:13.766Z,69
2017-07-10T07:16:15.798Z,69
2017-07-10T07:17:17.820Z,70
2017-07-10T07:18:19.837Z,70
2017-07-10T07:19:21.876Z,70
2017-07-10T07:20:23.905Z,70
2017-07-10T07:21:25.931Z,69
2017-07-10T07:22:27.948Z,70
2017-07-10T07:23:29.977Z,69
2017-07-10T07:24:32.003Z,69
2017-07-10T07:25:34.025Z,69
2017-07-10T07:26:36.057Z,69
2017-07-10T07:27:38.090Z,68
2017-07-10T07:28:40.119Z,69
2017-07-10T07:29:42.140Z,69
2017-07-10T07:30:44.165Z,69
2017-07-10T07:31:46.192Z,69
2017-07-10T07:32:48.223Z,70
2017-07-10T07:33:50.242Z,69
2017-07-10T07:34:52.280Z,68
2017-07-10T07:36:58.552Z,69
2017-07-10T07:38:00.617Z,70
2017-07-10T07:39:02.690Z,68
2017-07-10T07:40:04.757Z,70
2017-07-10T07:41:06.827Z,70
2017-07-10T07:42:08.890Z,70
2017-07-10T07:43:10.970Z,70
2017-07-10T07:44:13.044Z,69
2017-07-10T07:45:15.099Z,69
2017-07-10T07:46:17.178Z,70
2017-07-10T07:47:19.253Z,69
2017-07-10T07:48:21.323Z,69
2017-07-10T07:49:23.399Z,70
2017-07-10T07:50:25.458Z,69
2017-07-10T07:51:27.536Z,69
2017-07-10T07:52:29.610Z,69
2017-07-10T07:53:31.684Z,69
2017-07-10T07:54:33.768Z,69
2017-07-10T07:55:35.827Z,70
2017-07-10T07:56:37.893Z,70
2017-07-10T07:57:39.962Z,70
2017-07-10T07:58:42.040Z,71
2017-07-10T07:59:44.115Z,69
2017-07-10T08:00:46.188Z,72
2017-07-10T08:01:48.254Z,72
2017-07-10T08:02:50.313Z,72
2017-07-10T08:03:52.385Z,70
2017-07-10T08:04:54.456Z,69
2017-07-10T08:05:56.525Z,69
2017-07-10T08:06:58.598Z,68
2017-07-10T08:08:00.669Z,69
2017-07-10T08:09:02.730Z,69
2017-07-10T08:10:04.798Z,69
2017-07-10T08:11:06.872Z,69
2017-07-10T08:12:08.936Z,70
2017-07-10T08:13:11.009Z,69
2017-07-10T08:14:13.068Z,70
2017-07-10T08:15:15.142Z,70
2017-07-10T08:16:17.211Z,70
2017-07-10T08:17:19.276Z,71
2017-07-10T08:18:21.702Z,70
2017-07-10T08:19:23.768Z,70
2017-07-10T08:20:25.843Z,70
2017-07-10T08:21:27.912Z,70
2017-07-10T08:22:29.981Z,70
2017-07-10T08:23:32.051Z,70
2017-07-10T08:24:34.123Z,71
2017-07-10T08:25:36.195Z,70
2017-07-10T08:26:38.258Z,71
2017-07-10T08:27:40.324Z,70
2017-07-10T08:28:42.400Z,70
2017-07-10T08:29:44.473Z,70
2017-07-10T08:30:46.539Z,70
2017-07-10T08:31:48.613Z,69
2017-07-10T08:32:50.679Z,69
2017-07-10T08:33:52.749Z,69
2017-07-10T08:34:54.816Z,68
2017-07-10T08:35:56.889Z,68
2017-07-10T08:36:58.959Z,69
2017-07-10T08:38:01.027Z,68
2017-07-10T08:39:03.100Z,68
2017-07-10T08:40:05.174Z,69
2017-07-10T08:41:07.246Z,69
2017-07-10T08:42:09.316Z,68
2017-07-10T08:43:11.385Z,69
2017-07-10T08:44:13.455Z,69
2017-07-10T08:45:15.521Z,69
2017-07-10T08:46:17.586Z,69
2017-07-10T08:47:19.671Z,69
2017-07-10T08:48:21.743Z,69
2017-07-10T08:49:23.802Z,70
2017-07-10T08:50:25.882Z,70
2017-07-10T08:51:27.948Z,70
2017-07-10T08:52:30.022Z,69
2017-07-10T08:53:32.087Z,69
2017-07-10T08:54:34.162Z,69
2017-07-10T08:55:36.234Z,68
2017-07-10T08:56:38.306Z,69
2017-07-10T08:57:40.734Z,70
2017-07-10T08:58:42.812Z,70
2017-07-10T08:59:44.870Z,70
2017-07-10T09:00:46.933Z,70
2017-07-10T09:01:49.001Z,70
2017-07-10T09:02:51.071Z,70
2017-07-10T09:03:53.152Z,70
2017-07-10T09:04:55.219Z,69
2017-07-10T09:05:57.290Z,69
2017-07-10T09:06:59.360Z,70
2017-07-10T09:08:01.433Z,70
2017-07-10T09:09:03.503Z,70
2017-07-10T09:10:05.578Z,70
2017-07-10T09:11:07.646Z,70
2017-07-10T09:12:09.717Z,70
2017-07-10T09:13:11.779Z,71
2017-07-10T09:14:13.851Z,72
2017-07-10T09:15:15.908Z,73
2017-07-10T09:16:17.978Z,73
2017-07-10T09:17:20.054Z,76
2017-07-10T09:18:22.123Z,76
2017-07-10T09:19:24.190Z,78
2017-07-10T09:20:26.260Z,79
2017-07-10T09:21:28.329Z,80
2017-07-10T09:22:30.402Z,79
2017-07-10T09:23:32.460Z,79
2017-07-10T09:24:34.529Z,80
2017-07-10T09:25:36.597Z,80
2017-07-10T09:26:38.667Z,81
2017-07-10T09:27:40.729Z,82
2017-07-10T09:28:42.794Z,83
2017-07-10T09:29:44.877Z,82
2017-07-10T09:30:46.937Z,82
2017-07-10T09:31:48.993Z,83
2017-07-10T09:32:51.059Z,83
2017-07-10T09:33:53.503Z,83
2017-07-10T09:34:55.563Z,83
2017-07-10T09:35:57.633Z,83
2017-07-10T09:36:59.699Z,84
2017-07-10T09:38:01.799Z,84
2017-07-10T09:39:03.858Z,84
2017-07-10T09:40:05.923Z,84
2017-07-10T09:41:08.340Z,85
2017-07-10T09:42:10.403Z,84
2017-07-10T09:43:12.471Z,84
2017-07-10T09:44:14.541Z,84
2017-07-10T09:45:16.608Z,84
2017-07-10T09:46:18.673Z,85
2017-07-10T09:47:20.744Z,85
2017-07-10T09:48:22.802Z,85
2017-07-10T09:49:24.871Z,85
2017-07-10T09:50:26.952Z,85
2017-07-10T09:51:29.017Z,85
2017-07-10T09:52:31.088Z,85
2017-07-10T09:53:33.154Z,85
2017-07-10T09:54:35.225Z,86
2017-07-10T09:55:37.286Z,86
2017-07-10T09:56:39.696Z,86
2017-07-10T09:57:41.783Z,86
2017-07-10T09:58:43.843Z,86
2017-07-10T09:59:45.916Z,86
2017-07-10T10:00:47.991Z,86
2017-07-10T10:01:50.058Z,86
2017-07-10T10:02:52.116Z,87
2017-07-10T10:03:54.179Z,87
2017-07-10T10:04:56.256Z,87
2017-07-10T10:05:58.325Z,87
2017-07-10T10:07:00.397Z,87
2017-07-10T10:08:02.493Z,87
2017-07-10T10:09:04.550Z,87
2017-07-10T10:10:06.616Z,88
2017-07-10T10:11:08.683Z,88
2017-07-10T10:12:10.748Z,88
2017-07-10T10:13:12.813Z,89
2017-07-10T10:14:14.879Z,89
2017-07-10T10:15:16.949Z,89
2017-07-10T10:16:19.013Z,89
2017-07-10T10:17:21.075Z,89
2017-07-10T10:18:23.142Z,89
2017-07-10T10:19:25.200Z,89
2017-07-10T10:20:27.264Z,89
2017-07-10T10:21:29.343Z,89
2017-07-10T10:22:31.407Z,89
2017-07-10T10:23:33.466Z,88
2017-07-10T10:24:35.533Z,88
2017-07-10T10:25:37.599Z,89
2017-07-10T10:26:39.665Z,88
2017-07-10T10:27:41.739Z,88
2017-07-10T10:28:43.802Z,89
2017-07-10T10:29:45.873Z,88
2017-07-10T10:30:47.930Z,88
2017-07-10T10:31:50.001Z,89
2017-07-10T10:32:52.072Z,89
2017-07-10T10:33:54.137Z,89
2017-07-10T10:34:56.204Z,89
2017-07-10T10:35:58.269Z,89
2017-07-10T10:37:00.337Z,89
2017-07-10T10:38:02.411Z,89
2017-07-10T10:39:04.469Z,90
2017-07-10T10:40:06.530Z,90
2017-07-10T10:41:08.956Z,90
2017-07-10T10:42:11.024Z,90
2017-07-10T10:43:13.086Z,90
2017-07-10T10:44:15.160Z,90
2017-07-10T10:45:17.237Z,90
2017-07-10T10:46:19.293Z,90
2017-07-10T10:47:21.361Z,90
2017-07-10T10:48:23.434Z,90
2017-07-10T10:49:25.504Z,90
2017-07-10T10:50:27.574Z,90
2017-07-10T10:51:29.634Z,90
2017-07-10T10:52:31.705Z,90
2017-07-10T10:53:33.768Z,90
2017-07-10T10:54:35.836Z,90
2017-07-10T10:55:37.905Z,90
2017-07-10T10:56:39.973Z,90
2017-07-10T10:57:42.053Z,89
2017-07-10T10:58:44.126Z,89
2017-07-10T10:59:46.188Z,89
2017-07-10T11:00:48.254Z,89
2017-07-10T11:01:50.326Z,88
2017-07-10T11:02:52.394Z,89
2017-07-10T11:03:54.461Z,89
2017-07-10T11:04:56.528Z,89
2017-07-10T11:05:58.589Z,89
2017-07-10T11:07:00.656Z,89
2017-07-10T11:08:02.719Z,89
2017-07-10T11:09:04.784Z,89
2017-07-10T11:10:06.850Z,89
2017-07-10T11:11:08.908Z,89
2017-07-10T11:12:10.979Z,89
2017-07-10T11:13:13.056Z,89
2017-07-10T11:14:15.119Z,89
2017-07-10T11:15:17.188Z,89
2017-07-10T11:16:19.251Z,89
2017-07-10T11:17:21.321Z,89
2017-07-10T11:18:23.375Z,89
2017-07-10T11:19:25.446Z,89
2017-07-10T11:20:27.507Z,90
2017-07-10T11:21:29.572Z,89
2017-07-10T11:22:31.640Z,89
2017-07-10T11:23:33.697Z,89
2017-07-10T11:24:35.761Z,90
2017-07-10T11:25:37.838Z,90
2017-07-10T11:26:39.892Z,90
2017-07-10T11:27:41.958Z,90
2017-07-10T11:28:44.015Z,90
2017-07-10T11:29:46.080Z,90
2017-07-10T11:30:48.145Z,90
2017-07-10T11:31:50.224Z,90
2017-07-10T11:32:52.285Z,90
2017-07-10T11:33:54.354Z,91
2017-07-10T11:34:56.424Z,91
2017-07-10T11:35:58.495Z,91
2017-07-10T11:37:00.555Z,91
2017-07-10T11:38:02.619Z,91
2017-07-10T11:39:04.684Z,91
2017-07-10T11:40:06.762Z,91
2017-07-10T11:41:08.824Z,91
2017-07-10T11:42:10.888Z,91
2017-07-10T11:43:12.966Z,91
2017-07-10T11:44:15.055Z,91
2017-07-10T11:45:17.451Z,92
2017-07-10T11:46:19.514Z,92
2017-07-10T11:47:21.591Z,92
2017-07-10T11:48:23.665Z,92
2017-07-10T11:49:25.731Z,91
2017-07-10T11:50:28.149Z,91
2017-07-10T11:51:30.214Z,91
2017-07-10T11:52:32.278Z,91
2017-07-10T11:53:34.333Z,91
2017-07-10T11:54:36.404Z,91
2017-07-10T11:55:38.469Z,91
2017-07-10T11:56:40.536Z,91
2017-07-10T11:57:42.589Z,91
2017-07-10T11:58:44.651Z,91
2017-07-10T11:59:46.719Z,91
2017-07-10T12:00:48.777Z,91
2017-07-10T12:01:50.844Z,91
2017-07-10T12:02:52.908Z,91
2017-07-10T12:03:54.971Z,92
2017-07-10T12:04:57.036Z,92
2017-07-10T12:05:59.104Z,92
2017-07-10T12:07:01.171Z,92
2017-07-10T12:08:03.229Z,92
2017-07-10T12:09:05.299Z,91
2017-07-10T12:10:07.363Z,92
2017-07-10T12:11:09.428Z,92
2017-07-10T12:12:11.497Z,92
2017-07-10T12:13:13.556Z,92
2017-07-10T12:14:16.325Z,92
2017-07-10T12:15:18.388Z,92
2017-07-10T12:16:20.445Z,92
2017-07-10T12:17:22.511Z,92
2017-07-10T12:18:24.573Z,92
2017-07-10T12:19:26.996Z,92
2017-07-10T12:20:29.068Z,92
2017-07-10T12:21:31.478Z,92
2017-07-10T12:22:33.544Z,92
2017-07-10T12:23:35.609Z,92
2017-07-10T12:24:37.672Z,91
2017-07-10T12:25:39.748Z,91
2017-07-10T12:26:41.808Z,91
2017-07-10T12:27:43.877Z,91
2017-07-10T12:28:46.792Z,91
2017-07-10T12:29:48.849Z,91
2017-07-10T12:30:50.952Z,91
2017-07-10T12:31:53.039Z,91
2017-07-10T12:32:55.666Z,91
2017-07-10T12:34:02.342Z,92
2017-07-10T12:35:10.980Z,91
2017-07-10T12:36:14.137Z,91
2017-07-10T12:37:19.472Z,91
2017-07-10T12:38:22.553Z,92
2017-07-10T12:39:24.639Z,92
2017-07-10T12:40:26.702Z,92
2017-07-10T12:41:28.758Z,92
2017-07-10T12:42:30.827Z,92
2017-07-10T12:43:32.917Z,92
2017-07-10T12:44:34.982Z,92
2017-07-10T12:45:37.049Z,92
2017-07-10T12:46:39.117Z,92
2017-07-10T12:47:42.093Z,92
2017-07-10T12:48:44.237Z,92
2017-07-10T12:49:46.318Z,92
2017-07-10T12:50:48.400Z,92
2017-07-10T12:51:51.093Z,92
2017-07-10T12:52:53.153Z,92
2017-07-10T12:53:55.218Z,92
2017-07-10T12:54:57.281Z,92
2017-07-10T12:55:59.345Z,92
2017-07-10T12:57:01.412Z,92
2017-07-10T12:58:03.485Z,92
2017-07-10T12:59:05.540Z,92
2017-07-10T13:00:07.615Z,91
2017-07-10T13:01:09.673Z,91
2017-07-10T13:02:11.763Z,91
2017-07-10T13:03:13.862Z,91
2017-07-10T13:04:16.278Z,91
2017-07-10T13:05:18.345Z,91
2017-07-10T13:06:20.414Z,91
2017-07-10T13:07:22.482Z,91
2017-07-10T13:08:24.552Z,91
2017-07-10T13:09:26.619Z,91
2017-07-10T13:10:28.693Z,91
2017-07-10T13:11:30.762Z,91
2017-07-10T13:12:32.821Z,91
2017-07-10T13:13:34.888Z,91
2017-07-10T13:14:37.311Z,91
2017-07-10T13:15:39.383Z,91
2017-07-10T13:16:41.443Z,91
2017-07-10T13:17:43.506Z,91
2017-07-10T13:18:45.568Z,91
2017-07-10T13:19:47.628Z,91
2017-07-10T13:20:49.693Z,91
2017-07-10T13:21:52.118Z,91
2017-07-10T13:22:54.177Z,91
2017-07-10T13:23:56.234Z,91
2017-07-10T13:24:58.304Z,91
2017-07-10T13:26:00.363Z,91
2017-07-10T13:27:02.430Z,91
2017-07-10T13:28:04.502Z,90
2017-07-10T13:29:06.564Z,90
2017-07-10T13:30:08.633Z,90
2017-07-10T13:31:10.705Z,91
2017-07-10T13:32:12.770Z,91
2017-07-10T13:33:14.824Z,91
2017-07-10T13:34:16.904Z,91
2017-07-10T13:35:18.967Z,91
2017-07-10T13:36:21.067Z,91
2017-07-10T13:37:23.175Z,91
2017-07-10T13:38:25.250Z,91
2017-07-10T13:39:27.320Z,91
2017-07-10T13:40:29.373Z,91
2017-07-10T13:41:31.440Z,91
2017-07-10T13:42:33.866Z,91
2017-07-10T13:43:35.926Z,91
2017-07-10T13:44:37.995Z,91
2017-07-10T13:45:40.054Z,91
2017-07-10T13:46:42.116Z,91
2017-07-10T13:47:44.176Z,91
2017-07-10T13:48:46.238Z,91
2017-07-10T13:49:48.311Z,91
2017-07-10T13:50:50.377Z,91
2017-07-10T13:51:52.449Z,91
2017-07-10T13:52:54.513Z,91
2017-07-10T13:53:56.575Z,91
2017-07-10T13:54:58.649Z,91
2017-07-10T13:56:00.706Z,91
2017-07-10T13:57:02.770Z,92
2017-07-10T13:58:04.840Z,91
2017-07-10T13:59:06.909Z,91
2017-07-10T14:00:08.974Z,91
2017-07-10T14:01:11.035Z,92
2017-07-10T14:02:13.105Z,92
2017-07-10T14:03:15.175Z,92
2017-07-10T14:04:17.566Z,92
2017-07-10T14:05:19.986Z,92
2017-07-10T14:06:22.046Z,92
2017-07-10T14:07:24.111Z,92
2017-07-10T14:08:26.180Z,92
2017-07-10T14:09:28.256Z,92
2017-07-10T14:10:30.316Z,92
2017-07-10T14:11:32.741Z,92
2017-07-10T14:12:34.806Z,92
2017-07-10T14:13:36.869Z,92
2017-07-10T14:14:38.939Z,92
2017-07-10T14:15:40.996Z,92
2017-07-10T14:16:43.078Z,92
2017-07-10T14:17:45.141Z,92
2017-07-10T14:18:47.214Z,92
2017-07-10T14:19:49.275Z,92
2017-07-10T14:20:51.333Z,93
2017-07-10T14:21:53.406Z,93
2017-07-10T14:22:55.479Z,93
2017-07-10T14:23:57.542Z,93
2017-07-10T14:24:59.609Z,93
2017-07-10T14:26:01.674Z,93
2017-07-10T14:27:03.738Z,92
2017-07-10T14:28:05.795Z,92
2017-07-10T14:29:07.854Z,92
2017-07-10T14:30:09.932Z,92
2017-07-10T14:31:11.994Z,92
2017-07-10T14:32:14.076Z,92
2017-07-10T14:33:16.141Z,92
2017-07-10T14:34:18.201Z,93
2017-07-10T14:35:20.278Z,93
2017-07-10T14:36:22.445Z,93
2017-07-10T14:37:24.860Z,93
2017-07-10T14:38:26.924Z,93
2017-07-10T14:39:28.982Z,93
2017-07-10T14:40:31.055Z,92
2017-07-10T14:41:33.123Z,92
2017-07-10T14:42:35.182Z,92
2017-07-10T14:43:37.251Z,92
2017-07-10T14:44:39.313Z,92
2017-07-10T14:45:41.369Z,92
2017-07-10T14:46:44.934Z,92